sensor_id;sensor_type;location;lat;lon;timestamp;pressure;altitude;pressure_sealevel;temperature;humidity
5755;BME280;2902;42.130;24.732;2022-10-13T00:00:51;100332.16;;;13.00;74.74
5755;BME280;2902;42.130;24.732;2022-10-13T00:03:18;100328.47;;;13.01;74.80
5755;BME280;2902;42.130;24.732;2022-10-13T00:05:48;100330.50;;;12.99;74.66
5755;BME280;2902;42.130;24.732;2022-10-13T00:08:17;100335.53;;;12.94;74.13
5755;BME280;2902;42.130;24.732;2022-10-13T00:10:45;100335.72;;;12.93;74.70
5755;BME280;2902;42.130;24.732;2022-10-13T00:13:13;100338.72;;;12.83;74.50
5755;BME280;2902;42.130;24.732;2022-10-13T00:15:41;100333.25;;;12.70;75.17
5755;BME280;2902;42.130;24.732;2022-10-13T00:18:08;100331.47;;;12.56;75.77
5755;BME280;2902;42.130;24.732;2022-10-13T00:20:40;100332.78;;;12.46;76.51
5755;BME280;2902;42.130;24.732;2022-10-13T00:23:08;100334.00;;;12.43;76.70
5755;BME280;2902;42.130;24.732;2022-10-13T00:25:39;100329.47;;;12.44;76.82
5755;BME280;2902;42.130;24.732;2022-10-13T00:28:06;100331.06;;;12.38;77.46
5755;BME280;2902;42.130;24.732;2022-10-13T00:30:33;100327.75;;;12.36;77.59
5755;BME280;2902;42.130;24.732;2022-10-13T00:33:00;100331.44;;;12.35;77.76
5755;BME280;2902;42.130;24.732;2022-10-13T00:35:26;100325.72;;;12.38;78.25
5755;BME280;2902;42.130;24.732;2022-10-13T00:37:53;100326.19;;;12.42;78.04
5755;BME280;2902;42.130;24.732;2022-10-13T00:40:21;100331.25;;;12.37;78.47
5755;BME280;2902;42.130;24.732;2022-10-13T00:42:48;100332.75;;;12.25;79.00
5755;BME280;2902;42.130;24.732;2022-10-13T00:45:21;100332.56;;;12.26;79.60
5755;BME280;2902;42.130;24.732;2022-10-13T00:47:51;100333.38;;;12.27;79.38
5755;BME280;2902;42.130;24.732;2022-10-13T00:50:22;100338.25;;;12.23;79.51
5755;BME280;2902;42.130;24.732;2022-10-13T00:52:50;100338.97;;;12.17;79.84
5755;BME280;2902;42.130;24.732;2022-10-13T00:55:22;100329.06;;;12.11;80.21
5755;BME280;2902;42.130;24.732;2022-10-13T01:00:25;100326.94;;;12.07;80.39
5755;BME280;2902;42.130;24.732;2022-10-13T01:02:51;100324.47;;;12.05;80.27
5755;BME280;2902;42.130;24.732;2022-10-13T01:05:19;100327.78;;;12.07;80.90
5755;BME280;2902;42.130;24.732;2022-10-13T01:07:47;100334.22;;;11.98;81.11
5755;BME280;2902;42.130;24.732;2022-10-13T01:10:15;100325.31;;;11.91;83.02
5755;BME280;2902;42.130;24.732;2022-10-13T01:12:57;100316.31;;;11.78;83.47
5755;BME280;2902;42.130;24.732;2022-10-13T01:15:30;100315.50;;;11.77;84.12
5755;BME280;2902;42.130;24.732;2022-10-13T01:18:04;100325.50;;;11.75;84.78
5755;BME280;2902;42.130;24.732;2022-10-13T01:20:49;100322.56;;;11.70;85.32
5755;BME280;2902;42.130;24.732;2022-10-13T01:26:41;100316.97;;;11.65;86.77
5755;BME280;2902;42.130;24.732;2022-10-13T01:29:47;100315.75;;;11.53;88.00
5755;BME280;2902;42.130;24.732;2022-10-13T01:32:21;100319.09;;;11.47;89.07
5755;BME280;2902;42.130;24.732;2022-10-13T01:34:54;100312.81;;;11.48;89.21
5755;BME280;2902;42.130;24.732;2022-10-13T01:37:27;100303.97;;;11.48;89.79
5755;BME280;2902;42.130;24.732;2022-10-13T01:40:02;100308.84;;;11.44;90.46
5755;BME280;2902;42.130;24.732;2022-10-13T01:42:34;100308.28;;;11.49;90.83
5755;BME280;2902;42.130;24.732;2022-10-13T01:45:04;100308.09;;;11.50;91.54
5755;BME280;2902;42.130;24.732;2022-10-13T01:47:34;100301.59;;;11.53;91.90
5755;BME280;2902;42.130;24.732;2022-10-13T01:50:01;100299.72;;;11.61;91.80
5755;BME280;2902;42.130;24.732;2022-10-13T01:52:32;100302.66;;;11.66;91.53
5755;BME280;2902;42.130;24.732;2022-10-13T01:55:04;100299.91;;;11.74;91.00
5755;BME280;2902;42.130;24.732;2022-10-13T01:57:35;100300.44;;;11.84;90.74
5755;BME280;2902;42.130;24.732;2022-10-13T02:00:07;100304.88;;;11.77;90.15
5755;BME280;2902;42.130;24.732;2022-10-13T02:02:38;100305.94;;;11.68;90.50
5755;BME280;2902;42.130;24.732;2022-10-13T02:05:14;100300.03;;;11.58;90.89
5755;BME280;2902;42.130;24.732;2022-10-13T02:07:48;100295.91;;;11.56;90.89
5755;BME280;2902;42.130;24.732;2022-10-13T02:10:21;100295.06;;;11.55;90.79
5755;BME280;2902;42.130;24.732;2022-10-13T02:12:50;100288.47;;;11.51;90.94
5755;BME280;2902;42.130;24.732;2022-10-13T02:15:21;100291.13;;;11.51;90.94
5755;BME280;2902;42.130;24.732;2022-10-13T02:17:50;100301.25;;;11.56;91.01
5755;BME280;2902;42.130;24.732;2022-10-13T02:20:18;100296.88;;;11.63;90.15
5755;BME280;2902;42.130;24.732;2022-10-13T02:22:50;100292.38;;;11.63;89.63
5755;BME280;2902;42.130;24.732;2022-10-13T02:25:20;100298.97;;;11.67;90.36
5755;BME280;2902;42.130;24.732;2022-10-13T02:27:46;100294.00;;;11.64;90.26
5755;BME280;2902;42.130;24.732;2022-10-13T02:30:21;100296.31;;;11.67;89.42
5755;BME280;2902;42.130;24.732;2022-10-13T02:32:48;100293.47;;;11.69;89.12
5755;BME280;2902;42.130;24.732;2022-10-13T02:35:15;100289.63;;;11.71;88.71
5755;BME280;2902;42.130;24.732;2022-10-13T02:37:42;100298.25;;;11.73;88.80
5755;BME280;2902;42.130;24.732;2022-10-13T02:40:09;100301.09;;;11.72;88.68
5755;BME280;2902;42.130;24.732;2022-10-13T02:42:36;100295.59;;;11.73;88.41
5755;BME280;2902;42.130;24.732;2022-10-13T02:45:03;100301.53;;;11.75;88.49
5755;BME280;2902;42.130;24.732;2022-10-13T02:47:31;100297.88;;;11.76;88.32
5755;BME280;2902;42.130;24.732;2022-10-13T02:49:58;100299.91;;;11.74;87.42
5755;BME280;2902;42.130;24.732;2022-10-13T02:52:24;100301.53;;;11.75;88.23
5755;BME280;2902;42.130;24.732;2022-10-13T02:54:51;100294.13;;;11.71;88.25
5755;BME280;2902;42.130;24.732;2022-10-13T02:57:18;100297.88;;;11.76;87.87
5755;BME280;2902;42.130;24.732;2022-10-13T02:59:45;100297.06;;;11.76;87.64
5755;BME280;2902;42.130;24.732;2022-10-13T03:02:11;100287.22;;;11.76;87.52
5755;BME280;2902;42.130;24.732;2022-10-13T03:04:40;100292.53;;;11.76;87.77
5755;BME280;2902;42.130;24.732;2022-10-13T03:07:06;100295.94;;;11.70;87.22
5755;BME280;2902;42.130;24.732;2022-10-13T03:09:33;100291.75;;;11.61;87.81
5755;BME280;2902;42.130;24.732;2022-10-13T03:12:00;100290.84;;;11.46;88.33
5755;BME280;2902;42.130;24.732;2022-10-13T03:14:27;100290.31;;;11.36;89.30
5755;BME280;2902;42.130;24.732;2022-10-13T03:16:54;100289.66;;;11.34;89.64
5755;BME280;2902;42.130;24.732;2022-10-13T03:19:21;100288.34;;;11.30;89.45
5755;BME280;2902;42.130;24.732;2022-10-13T03:21:49;100279.81;;;11.20;89.14
5755;BME280;2902;42.130;24.732;2022-10-13T03:24:15;100293.22;;;11.27;89.68
5755;BME280;2902;42.130;24.732;2022-10-13T03:26:42;100285.78;;;11.22;89.50
5755;BME280;2902;42.130;24.732;2022-10-13T03:29:12;100287.13;;;11.18;89.14
5755;BME280;2902;42.130;24.732;2022-10-13T03:31:38;100288.44;;;11.22;88.52
5755;BME280;2902;42.130;24.732;2022-10-13T03:34:05;100288.44;;;11.22;88.47
5755;BME280;2902;42.130;24.732;2022-10-13T03:36:32;100286.78;;;11.21;88.74
5755;BME280;2902;42.130;24.732;2022-10-13T03:39:00;100281.13;;;11.24;88.53
5755;BME280;2902;42.130;24.732;2022-10-13T03:41:27;100283.78;;;11.24;88.17
5755;BME280;2902;42.130;24.732;2022-10-13T03:43:54;100277.63;;;11.24;88.03
5755;BME280;2902;42.130;24.732;2022-10-13T03:46:23;100286.78;;;11.21;87.84
5755;BME280;2902;42.130;24.732;2022-10-13T03:48:50;100276.50;;;11.18;88.01
5755;BME280;2902;42.130;24.732;2022-10-13T03:51:18;100276.50;;;11.18;88.33
5755;BME280;2902;42.130;24.732;2022-10-13T03:53:46;100276.41;;;11.12;88.33
5755;BME280;2902;42.130;24.732;2022-10-13T03:56:16;100277.66;;;11.01;88.59
5755;BME280;2902;42.130;24.732;2022-10-13T03:58:43;100275.00;;;11.01;88.67
5755;BME280;2902;42.130;24.732;2022-10-13T04:01:12;100274.00;;;11.02;89.13
5755;BME280;2902;42.130;24.732;2022-10-13T04:03:39;100277.84;;;10.99;88.76
5755;BME280;2902;42.130;24.732;2022-10-13T04:06:06;100272.69;;;10.98;89.04
5755;BME280;2902;42.130;24.732;2022-10-13T04:08:33;100279.69;;;10.99;88.82
5755;BME280;2902;42.130;24.732;2022-10-13T04:11:00;100278.41;;;10.95;88.83
5755;BME280;2902;42.130;24.732;2022-10-13T04:13:29;100281.56;;;10.90;89.49
5755;BME280;2902;42.130;24.732;2022-10-13T04:16:00;100273.66;;;10.82;89.72
5755;BME280;2902;42.130;24.732;2022-10-13T04:18:27;100274.19;;;10.78;90.12
5755;BME280;2902;42.130;24.732;2022-10-13T04:20:54;100275.75;;;10.72;90.10
5755;BME280;2902;42.130;24.732;2022-10-13T04:23:21;100285.91;;;10.69;89.81
5755;BME280;2902;42.130;24.732;2022-10-13T04:25:47;100290.56;;;10.67;90.10
5755;BME280;2902;42.130;24.732;2022-10-13T04:28:14;100290.91;;;10.64;89.77
5755;BME280;2902;42.130;24.732;2022-10-13T04:30:42;100287.81;;;10.60;90.45
5755;BME280;2902;42.130;24.732;2022-10-13T04:33:09;100289.63;;;10.60;90.65
5755;BME280;2902;42.130;24.732;2022-10-13T04:35:38;100293.81;;;10.54;90.87
5755;BME280;2902;42.130;24.732;2022-10-13T04:38:05;100285.53;;;10.49;91.16
5755;BME280;2902;42.130;24.732;2022-10-13T04:40:33;100288.19;;;10.49;90.98
5755;BME280;2902;42.130;24.732;2022-10-13T04:43:00;100283.66;;;10.58;91.17
5755;BME280;2902;42.130;24.732;2022-10-13T04:45:27;100292.63;;;10.57;90.53
5755;BME280;2902;42.130;24.732;2022-10-13T04:47:55;100278.75;;;10.47;90.51
5755;BME280;2902;42.130;24.732;2022-10-13T04:50:22;100294.63;;;10.55;90.79
5755;BME280;2902;42.130;24.732;2022-10-13T04:52:49;100293.56;;;10.64;90.76
5755;BME280;2902;42.130;24.732;2022-10-13T04:55:16;100296.81;;;10.74;90.61
5755;BME280;2902;42.130;24.732;2022-10-13T04:57:42;100300.78;;;10.78;90.13
5755;BME280;2902;42.130;24.732;2022-10-13T05:00:10;100288.84;;;10.74;89.74
5755;BME280;2902;42.130;24.732;2022-10-13T05:02:37;100302.91;;;10.82;89.86
5755;BME280;2902;42.130;24.732;2022-10-13T05:05:06;100299.22;;;10.83;89.32
5755;BME280;2902;42.130;24.732;2022-10-13T05:07:33;100303.00;;;10.89;89.08
5755;BME280;2902;42.130;24.732;2022-10-13T05:10:00;100297.13;;;11.02;89.30
5755;BME280;2902;42.130;24.732;2022-10-13T05:12:26;100284.56;;;11.10;88.41
5755;BME280;2902;42.130;24.732;2022-10-13T05:14:53;100295.72;;;11.28;88.94
5755;BME280;2902;42.130;24.732;2022-10-13T05:17:20;100298.75;;;11.40;87.32
5755;BME280;2902;42.130;24.732;2022-10-13T05:19:47;100297.47;;;11.50;88.09
5755;BME280;2902;42.130;24.732;2022-10-13T05:22:16;100304.53;;;11.58;87.04
5755;BME280;2902;42.130;24.732;2022-10-13T05:24:42;100300.63;;;11.68;86.70
5755;BME280;2902;42.130;24.732;2022-10-13T05:27:11;100299.81;;;11.68;86.46
5755;BME280;2902;42.130;24.732;2022-10-13T05:29:38;100306.50;;;11.78;86.37
5755;BME280;2902;42.130;24.732;2022-10-13T05:32:06;100299.22;;;11.87;86.09
5755;BME280;2902;42.130;24.732;2022-10-13T05:34:33;100306.31;;;11.94;85.65
5755;BME280;2902;42.130;24.732;2022-10-13T05:37:00;100302.72;;;12.02;84.64
5755;BME280;2902;42.130;24.732;2022-10-13T05:39:28;100310.78;;;12.08;84.23
5755;BME280;2902;42.130;24.732;2022-10-13T05:41:54;100319.25;;;12.12;83.66
5755;BME280;2902;42.130;24.732;2022-10-13T05:44:22;100315.84;;;12.18;83.87
5755;BME280;2902;42.130;24.732;2022-10-13T05:46:49;100315.41;;;12.14;83.38
5755;BME280;2902;42.130;24.732;2022-10-13T05:49:15;100320.97;;;12.19;83.37
5755;BME280;2902;42.130;24.732;2022-10-13T05:51:45;100326.84;;;12.29;83.56
5755;BME280;2902;42.130;24.732;2022-10-13T05:54:15;100313.25;;;12.24;82.81
5755;BME280;2902;42.130;24.732;2022-10-13T05:56:47;100327.81;;;12.43;82.54
5755;BME280;2902;42.130;24.732;2022-10-13T05:59:17;100331.22;;;12.51;81.98
5755;BME280;2902;42.130;24.732;2022-10-13T06:01:45;100330.06;;;12.60;81.78
5755;BME280;2902;42.130;24.732;2022-10-13T06:04:16;100335.91;;;12.70;80.85
5755;BME280;2902;42.130;24.732;2022-10-13T06:06:46;100328.25;;;12.82;81.47
5755;BME280;2902;42.130;24.732;2022-10-13T06:09:14;100330.13;;;13.02;81.78
5755;BME280;2902;42.130;24.732;2022-10-13T06:11:41;100340.81;;;13.30;79.21
5755;BME280;2902;42.130;24.732;2022-10-13T06:14:09;100333.09;;;13.62;80.65
5755;BME280;2902;42.130;24.732;2022-10-13T06:16:36;100341.34;;;14.42;74.81
5755;BME280;2902;42.130;24.732;2022-10-13T06:19:03;100350.16;;;15.15;72.45
5755;BME280;2902;42.130;24.732;2022-10-13T06:21:30;100341.34;;;15.47;74.92
5755;BME280;2902;42.130;24.732;2022-10-13T06:23:56;100355.50;;;16.00;71.04
5755;BME280;2902;42.130;24.732;2022-10-13T06:26:23;100353.72;;;16.51;69.06
5755;BME280;2902;42.130;24.732;2022-10-13T06:28:50;100357.09;;;17.09;65.03
5755;BME280;2902;42.130;24.732;2022-10-13T06:31:18;100367.63;;;17.41;62.32
5755;BME280;2902;42.130;24.732;2022-10-13T06:33:45;100359.91;;;17.76;60.60
5755;BME280;2902;42.130;24.732;2022-10-13T06:36:11;100348.19;;;17.88;62.00
5755;BME280;2902;42.130;24.732;2022-10-13T06:38:38;100351.84;;;17.94;59.45
5755;BME280;2902;42.130;24.732;2022-10-13T06:41:05;100350.34;;;18.16;58.51
5755;BME280;2902;42.130;24.732;2022-10-13T06:43:32;100349.63;;;18.09;60.05
5755;BME280;2902;42.130;24.732;2022-10-13T06:45:59;100327.56;;;18.18;59.73
5755;BME280;2902;42.130;24.732;2022-10-13T06:48:28;100353.72;;;18.29;58.27
5755;BME280;2902;42.130;24.732;2022-10-13T06:51:00;100343.56;;;18.31;57.86
5755;BME280;2902;42.130;24.732;2022-10-13T06:53:27;100356.50;;;18.23;56.99
5755;BME280;2902;42.130;24.732;2022-10-13T06:55:55;100347.66;;;18.16;58.32
5755;BME280;2902;42.130;24.732;2022-10-13T06:58:22;100352.09;;;18.10;58.24
5755;BME280;2902;42.130;24.732;2022-10-13T07:00:49;100349.16;;;18.12;58.41
5755;BME280;2902;42.130;24.732;2022-10-13T07:03:15;100355.91;;;18.39;56.84
5755;BME280;2902;42.130;24.732;2022-10-13T07:05:43;100353.69;;;18.36;57.48
5755;BME280;2902;42.130;24.732;2022-10-13T07:08:10;100362.13;;;18.39;56.16
5755;BME280;2902;42.130;24.732;2022-10-13T07:10:37;100342.06;;;18.17;56.63
5755;BME280;2902;42.130;24.732;2022-10-13T07:13:04;100337.75;;;18.34;58.86
5755;BME280;2902;42.130;24.732;2022-10-13T07:15:31;100333.03;;;18.48;57.06
5755;BME280;2902;42.130;24.732;2022-10-13T07:17:58;100331.47;;;18.99;59.08
5755;BME280;2902;42.130;24.732;2022-10-13T07:20:25;100337.03;;;19.16;57.07
5755;BME280;2902;42.130;24.732;2022-10-13T07:22:53;100346.34;;;19.02;57.67
5755;BME280;2902;42.130;24.732;2022-10-13T07:25:20;100331.47;;;18.99;57.92
5755;BME280;2902;42.130;24.732;2022-10-13T07:27:47;100328.84;;;19.11;58.82
5755;BME280;2902;42.130;24.732;2022-10-13T07:30:14;100328.22;;;19.50;58.23
5755;BME280;2902;42.130;24.732;2022-10-13T07:32:41;100329.41;;;19.77;56.16
5755;BME280;2902;42.130;24.732;2022-10-13T07:35:08;100323.50;;;20.14;55.85
5755;BME280;2902;42.130;24.732;2022-10-13T07:37:35;100318.53;;;20.46;55.81
5755;BME280;2902;42.130;24.732;2022-10-13T07:40:05;100335.88;;;20.78;53.28
5755;BME280;2902;42.130;24.732;2022-10-13T07:42:32;100332.22;;;20.84;53.90
5755;BME280;2902;42.130;24.732;2022-10-13T07:44:58;100318.03;;;20.49;53.92
5755;BME280;2902;42.130;24.732;2022-10-13T07:47:25;100310.22;;;20.36;55.67
5755;BME280;2902;42.130;24.732;2022-10-13T07:49:52;100308.25;;;20.59;54.89
5755;BME280;2902;42.130;24.732;2022-10-13T07:52:20;100305.09;;;21.07;52.62
5755;BME280;2902;42.130;24.732;2022-10-13T07:54:47;100303.31;;;21.13;52.82
5755;BME280;2902;42.130;24.732;2022-10-13T07:57:15;100297.09;;;21.29;52.12
5755;BME280;2902;42.130;24.732;2022-10-13T07:59:42;100298.53;;;21.36;52.79
5755;BME280;2902;42.130;24.732;2022-10-13T08:02:08;100292.78;;;21.66;53.30
5755;BME280;2902;42.130;24.732;2022-10-13T08:04:35;100301.91;;;22.14;51.65
5755;BME280;2902;42.130;24.732;2022-10-13T08:07:03;100299.06;;;22.04;50.04
5755;BME280;2902;42.130;24.732;2022-10-13T08:09:30;100292.56;;;22.05;49.77
5755;BME280;2902;42.130;24.732;2022-10-13T08:11:57;100291.19;;;22.24;51.13
5755;BME280;2902;42.130;24.732;2022-10-13T08:14:25;100281.78;;;22.75;48.70
5755;BME280;2902;42.130;24.732;2022-10-13T08:16:52;100285.00;;;23.03;46.59
5755;BME280;2902;42.130;24.732;2022-10-13T08:19:19;100277.75;;;23.09;46.36
5755;BME280;2902;42.130;24.732;2022-10-13T08:21:46;100278.44;;;22.68;46.05
5755;BME280;2902;42.130;24.732;2022-10-13T08:24:15;100271.16;;;22.68;45.91
5755;BME280;2902;42.130;24.732;2022-10-13T08:26:43;100274.94;;;22.46;47.25
5755;BME280;2902;42.130;24.732;2022-10-13T08:29:11;100268.47;;;22.47;46.84
5755;BME280;2902;42.130;24.732;2022-10-13T08:31:40;100265.69;;;22.63;47.08
5755;BME280;2902;42.130;24.732;2022-10-13T08:34:07;100268.06;;;22.86;45.91
5755;BME280;2902;42.130;24.732;2022-10-13T08:36:34;100252.03;;;23.11;44.10
5755;BME280;2902;42.130;24.732;2022-10-13T08:39:01;100262.16;;;23.21;43.36
5755;BME280;2902;42.130;24.732;2022-10-13T08:41:30;100259.31;;;23.37;43.53
5755;BME280;2902;42.130;24.732;2022-10-13T08:44:02;100265.16;;;23.24;43.15
5755;BME280;2902;42.130;24.732;2022-10-13T08:46:34;100260.66;;;23.08;43.26
5755;BME280;2902;42.130;24.732;2022-10-13T08:49:05;100250.38;;;23.10;44.21
5755;BME280;2902;42.130;24.732;2022-10-13T08:51:32;100257.63;;;23.31;43.14
5755;BME280;2902;42.130;24.732;2022-10-13T08:54:01;100253.50;;;23.60;43.70
5755;BME280;2902;42.130;24.732;2022-10-13T08:56:29;100259.63;;;23.87;42.06
5755;BME280;2902;42.130;24.732;2022-10-13T08:58:57;100259.19;;;24.05;41.37
5755;BME280;2902;42.130;24.732;2022-10-13T09:01:29;100264.09;;;24.13;41.56
5755;BME280;2902;42.130;24.732;2022-10-13T09:04:02;100259.63;;;23.87;41.06
5755;BME280;2902;42.130;24.732;2022-10-13T09:06:37;100262.88;;;23.89;42.19
5755;BME280;2902;42.130;24.732;2022-10-13T09:09:06;100256.13;;;23.92;42.19
5755;BME280;2902;42.130;24.732;2022-10-13T09:11:36;100253.81;;;24.20;41.46
5755;BME280;2902;42.130;24.732;2022-10-13T09:14:05;100253.91;;;24.50;39.54
5755;BME280;2902;42.130;24.732;2022-10-13T09:16:34;100247.91;;;24.43;40.22
5755;BME280;2902;42.130;24.732;2022-10-13T09:19:23;100247.94;;;24.48;39.46
5755;BME280;2902;42.130;24.732;2022-10-13T09:21:53;100247.97;;;24.63;40.71
5755;BME280;2902;42.130;24.732;2022-10-13T09:24:22;100231.72;;;24.73;39.44
5755;BME280;2902;42.130;24.732;2022-10-13T09:27:03;100234.94;;;24.65;38.28
5755;BME280;2902;42.130;24.732;2022-10-13T09:29:30;100233.03;;;24.61;38.56
5755;BME280;2902;42.130;24.732;2022-10-13T09:32:13;100236.03;;;24.74;38.47
5755;BME280;2902;42.130;24.732;2022-10-13T09:34:40;100226.81;;;24.80;39.64
5755;BME280;2902;42.130;24.732;2022-10-13T09:37:16;100231.72;;;24.93;38.92
5755;BME280;2902;42.130;24.732;2022-10-13T09:39:44;100232.53;;;25.09;37.67
5755;BME280;2902;42.130;24.732;2022-10-13T09:42:19;100227.06;;;24.99;37.79
5755;BME280;2902;42.130;24.732;2022-10-13T09:44:46;100221.13;;;24.87;38.32
5755;BME280;2902;42.130;24.732;2022-10-13T09:47:17;100207.78;;;24.65;38.63
5755;BME280;2902;42.130;24.732;2022-10-13T09:49:57;100216.91;;;24.24;39.15
5755;BME280;2902;42.130;24.732;2022-10-13T09:52:26;100198.69;;;23.58;40.58
5755;BME280;2902;42.130;24.732;2022-10-13T09:54:56;100204.47;;;23.30;41.63
5755;BME280;2902;42.130;24.732;2022-10-13T09:57:29;100194.69;;;22.93;41.92
5755;BME280;2902;42.130;24.732;2022-10-13T10:00:03;100184.53;;;22.78;43.17
5755;BME280;2902;42.130;24.732;2022-10-13T10:02:32;100183.13;;;23.07;43.70
5755;BME280;2902;42.130;24.732;2022-10-13T10:05:05;100188.19;;;23.25;41.25
5755;BME280;2902;42.130;24.732;2022-10-13T10:07:34;100178.25;;;23.41;42.47
5755;BME280;2902;42.130;24.732;2022-10-13T10:10:04;100149.81;;;23.53;40.51
5755;BME280;2902;42.130;24.732;2022-10-13T10:12:33;100168.97;;;23.83;41.07
5755;BME280;2902;42.130;24.732;2022-10-13T10:15:02;100165.78;;;23.96;40.33
5755;BME280;2902;42.130;24.732;2022-10-13T10:17:39;100162.19;;;23.86;40.18
5755;BME280;2902;42.130;24.732;2022-10-13T10:20:31;100159.75;;;23.89;39.66
5755;BME280;2902;42.130;24.732;2022-10-13T10:23:05;100156.53;;;23.92;39.79
5755;BME280;2902;42.130;24.732;2022-10-13T10:25:38;100142.34;;;23.75;40.30
5755;BME280;2902;42.130;24.732;2022-10-13T10:28:26;100145.09;;;23.90;40.49
5755;BME280;2902;42.130;24.732;2022-10-13T10:31:05;100137.03;;;24.05;39.20
5755;BME280;2902;42.130;24.732;2022-10-13T10:33:43;100136.78;;;24.22;39.42
5755;BME280;2902;42.130;24.732;2022-10-13T10:36:19;100127.84;;;24.41;39.14
5755;BME280;2902;42.130;24.732;2022-10-13T10:38:50;100126.28;;;24.60;38.63
5755;BME280;2902;42.130;24.732;2022-10-13T10:41:30;100120.28;;;24.68;38.23
5755;BME280;2902;42.130;24.732;2022-10-13T10:44:01;100118.66;;;24.72;38.52
5755;BME280;2902;42.130;24.732;2022-10-13T10:46:34;100116.72;;;24.93;38.95
5755;BME280;2902;42.130;24.732;2022-10-13T10:49:12;100119.72;;;25.02;37.31
5755;BME280;2902;42.130;24.732;2022-10-13T10:51:41;100115.38;;;24.75;36.99
5755;BME280;2902;42.130;24.732;2022-10-13T10:54:22;100106.13;;;24.56;38.42
5755;BME280;2902;42.130;24.732;2022-10-13T10:56:54;100105.06;;;24.82;38.13
5755;BME280;2902;42.130;24.732;2022-10-13T10:59:26;100093.09;;;24.78;37.66
5755;BME280;2902;42.130;24.732;2022-10-13T11:02:11;100090.66;;;24.67;38.26
5755;BME280;2902;42.130;24.732;2022-10-13T11:04:42;100084.94;;;24.73;38.69
5755;BME280;2902;42.130;24.732;2022-10-13T11:07:13;100080.06;;;24.70;38.97
5755;BME280;2902;42.130;24.732;2022-10-13T11:15:53;100070.44;;;25.28;37.39
5755;BME280;2902;42.130;24.732;2022-10-13T11:18:55;100067.44;;;25.35;37.36
5755;BME280;2902;42.130;24.732;2022-10-13T11:21:23;100064.66;;;25.45;37.15
5755;BME280;2902;42.130;24.732;2022-10-13T11:23:50;100050.84;;;25.36;36.56
5755;BME280;2902;42.130;24.732;2022-10-13T11:26:38;100053.78;;;25.40;36.88
5755;BME280;2902;42.130;24.732;2022-10-13T11:29:15;100041.03;;;25.40;36.63
5755;BME280;2902;42.130;24.732;2022-10-13T11:31:51;100036.91;;;25.38;36.46
5755;BME280;2902;42.130;24.732;2022-10-13T11:34:30;100036.91;;;25.38;36.76
5755;BME280;2902;42.130;24.732;2022-10-13T11:36:59;100032.25;;;25.48;36.52
5755;BME280;2902;42.130;24.732;2022-10-13T11:39:57;100024.16;;;25.38;35.71
5755;BME280;2902;42.130;24.732;2022-10-13T11:45:40;100016.75;;;24.65;37.37
5755;BME280;2902;42.130;24.732;2022-10-13T11:48:44;100013.19;;;24.79;38.33
5755;BME280;2902;42.130;24.732;2022-10-13T11:51:24;100022.91;;;24.95;37.61
5755;BME280;2902;42.130;24.732;2022-10-13T11:54:03;100017.16;;;25.12;37.44
5755;BME280;2902;42.130;24.732;2022-10-13T11:56:34;100010.34;;;25.15;35.88
5755;BME280;2902;42.130;24.732;2022-10-13T11:59:01;100016.63;;;25.10;35.89
5755;BME280;2902;42.130;24.732;2022-10-13T12:01:27;100004.00;;;24.60;36.75
5755;BME280;2902;42.130;24.732;2022-10-13T12:03:56;100001.78;;;24.47;36.08
5755;BME280;2902;42.130;24.732;2022-10-13T12:06:27;100005.06;;;24.54;37.00
5755;BME280;2902;42.130;24.732;2022-10-13T12:09:01;99996.88;;;24.59;37.60
5755;BME280;2902;42.130;24.732;2022-10-13T12:11:31;99993.38;;;24.69;37.63
5755;BME280;2902;42.130;24.732;2022-10-13T12:13:59;99995.81;;;24.55;37.00
5755;BME280;2902;42.130;24.732;2022-10-13T12:16:27;99996.91;;;24.69;36.94
5755;BME280;2902;42.130;24.732;2022-10-13T12:19:07;99990.13;;;24.52;36.57
5755;BME280;2902;42.130;24.732;2022-10-13T12:21:48;99985.22;;;24.49;38.45
5755;BME280;2902;42.130;24.732;2022-10-13T12:24:15;99965.97;;;24.60;45.44
5755;BME280;2902;42.130;24.732;2022-10-13T12:26:42;99986.03;;;24.74;40.08
5755;BME280;2902;42.130;24.732;2022-10-13T12:29:11;99981.63;;;24.93;44.17
5755;BME280;2902;42.130;24.732;2022-10-13T12:31:40;99972.59;;;25.03;43.70
5755;BME280;2902;42.130;24.732;2022-10-13T12:34:17;99983.69;;;25.17;41.77
5755;BME280;2902;42.130;24.732;2022-10-13T12:36:50;99982.63;;;25.18;38.59
5755;BME280;2902;42.130;24.732;2022-10-13T12:39:21;99987.25;;;25.07;35.67
5755;BME280;2902;42.130;24.732;2022-10-13T12:41:50;99972.59;;;25.03;45.75
5755;BME280;2902;42.130;24.732;2022-10-13T12:44:20;99972.03;;;25.06;44.51
5755;BME280;2902;42.130;24.732;2022-10-13T12:46:49;99963.03;;;25.16;37.89
5755;BME280;2902;42.130;24.732;2022-10-13T12:49:22;99956.47;;;25.22;43.97
5755;BME280;2902;42.130;24.732;2022-10-13T12:51:51;99955.34;;;25.33;41.88
5755;BME280;2902;42.130;24.732;2022-10-13T12:54:22;99946.63;;;25.36;45.15
5755;BME280;2902;42.130;24.732;2022-10-13T12:56:51;99958.34;;;25.31;37.03
5755;BME280;2902;42.130;24.732;2022-10-13T12:59:20;99951.31;;;25.20;39.98
5755;BME280;2902;42.130;24.732;2022-10-13T13:01:58;99960.06;;;25.07;36.72
5755;BME280;2902;42.130;24.732;2022-10-13T13:04:38;99934.78;;;25.12;43.25
5755;BME280;2902;42.130;24.732;2022-10-13T13:07:26;99937.41;;;25.32;42.00
5755;BME280;2902;42.130;24.732;2022-10-13T13:10:14;99939.31;;;25.31;35.72
5755;BME280;2902;42.130;24.732;2022-10-13T13:12:42;99946.13;;;25.24;33.05
5755;BME280;2902;42.130;24.732;2022-10-13T13:15:33;99943.44;;;25.19;33.42
5755;BME280;2902;42.130;24.732;2022-10-13T13:18:30;99943.41;;;25.24;36.74
5755;BME280;2902;42.130;24.732;2022-10-13T13:21:03;99936.38;;;25.18;33.95
5755;BME280;2902;42.130;24.732;2022-10-13T13:23:31;99943.47;;;25.08;34.78
5755;BME280;2902;42.130;24.732;2022-10-13T13:26:01;99941.34;;;25.06;33.55
5755;BME280;2902;42.130;24.732;2022-10-13T13:28:29;99936.97;;;25.10;34.87
5755;BME280;2902;42.130;24.732;2022-10-13T13:30:56;99945.25;;;24.74;33.68
5755;BME280;2902;42.130;24.732;2022-10-13T13:33:23;99933.25;;;24.80;35.42